Ottumwa Regional Airport Ottumwa US
ICAO: KOTM
IATA: OTM
Category: Medium
Scheduled Services: No

Elevation: 845 ft
TransAlt. 18000 ft.

Airport Communications:
ASOS:124.175
CHICAGO CNTR:118.15
FORT DODGE RDO:122.4
CTAF/UNICOM:123

KOTM Zoom In..

Runways:

(A) RW 04 length 4600 ft width 100 ft
---- / hdg 42

(B) RW 13 length 5885 ft width 150 ft
---- / hdg 132

(C) RW 22 length 4600 ft width 100 ft
---- / hdg 222

(D) RW 31 length 5885 ft width 150 ft
ILS 109.50 / hdg 312

Location; KOTM
Day. 19 / Time. 02.53 Zulu
* Altimeter: 29.98
* Temperature: 24° c. 75.2°f.
* Wind from: 120° Speed 09 kn.
Dewpoint: 19° c.
Visibility: 10 Statute Miles.
Clouds: Broken 7000 ft.
Clouds: Overcast 1000 ft.

KOTM 190253Z AUTO 12009KT 10SM BKN070 OVC100 24/19 A2998 RMK AO2 SLP146 T02440189 53004


Wind From 120°
Speed 09 kn.

 
 
jpsmedia.com for Web Design worldairports.se 2018   terms of use